Time;durP1;ratioP1;P1;durP2;ratioP2;P2;SDS_P1;SDS_P2;PMS_P1;PMS_P2;Temp;Humidity;BMP_temperature;BMP_pressure;BME280_temperature;BME280_humidity;BME280_pressure;Samples;Min_cycle;Max_cycle;Signal;HPM_P1;HPM_P2
2022/04/16 00:01:34;;;;;;;;;22.75;20.00;;;;;17.49;47.88;102147.81;5164957;27;46951;-63
2022/04/16 00:04:00;;;;;;;;;18.00;16.50;;;;;17.48;48.14;102151.38;5162114;27;45481;-62
2022/04/16 00:06:25;;;;;;;;;20.25;18.00;;;;;17.47;47.90;102148.63;5162640;27;45449;-63
2022/04/16 00:08:51;;;;;;;;;17.00;13.25;;;;;17.38;48.46;102143.97;5158102;27;45346;-63
2022/04/16 00:11:16;;;;;;;;;20.75;20.00;;;;;17.37;48.46;102147.53;5165952;27;45495;-63
2022/04/16 00:13:41;;;;;;;;;29.25;28.25;;;;;17.34;48.36;102152.91;5161096;27;45260;-62
2022/04/16 00:16:07;;;;;;;;;20.00;17.25;;;;;17.30;48.71;102156.41;5159608;27;45329;-63
2022/04/16 00:18:33;;;;;;;;;18.00;15.50;;;;;16.87;48.79;102083.47;5160758;27;45537;-64
2022/04/16 00:20:58;;;;;;;;;21.50;17.75;;;;;17.23;49.00;102151.75;5157845;27;45609;-63
2022/04/16 00:23:24;;;;;;;;;17.25;14.75;;;;;17.02;48.75;102123.41;5163314;27;45450;-62
2022/04/16 00:25:50;;;;;;;;;22.25;20.25;;;;;16.95;48.94;102125.06;5158569;27;45537;-64
2022/04/16 00:28:16;;;;;;;;;19.50;16.50;;;;;17.06;48.96;102145.97;5165754;27;45647;-62
2022/04/16 00:30:41;;;;;;;;;17.50;15.25;;;;;17.03;49.05;102146.84;5162594;27;45352;-62
2022/04/16 00:33:07;;;;;;;;;14.75;10.00;;;;;17.02;49.32;102142.28;5161902;27;45489;-63
2022/04/16 00:35:34;;;;;;;;;20.50;18.50;;;;;16.85;49.55;102114.94;5171921;27;45038;-64
2022/04/16 00:37:59;;;;;;;;;28.75;19.75;;;;;16.95;49.43;102140.34;5161810;27;45657;-63
2022/04/16 00:40:25;;;;;;;;;18.25;18.25;;;;;16.89;50.00;102137.50;5161285;27;45830;-63
2022/04/16 00:42:51;;;;;;;;;26.25;25.00;;;;;16.84;50.56;102140.06;5162204;27;45513;-62
2022/04/16 00:45:17;;;;;;;;;19.75;19.75;;;;;16.84;49.76;102136.47;5168942;27;45344;-63
2022/04/16 00:47:43;;;;;;;;;23.75;21.25;;;;;16.74;50.19;102124.53;5159995;27;45288;-63
2022/04/16 00:50:09;;;;;;;;;21.00;16.25;;;;;16.66;50.10;102110.84;5176247;27;45640;-62
2022/04/16 00:52:39;;;;;;;;;18.25;16.50;;;;;16.85;50.60;102146.44;5169018;27;45268;-65
2022/04/16 00:55:08;;;;;;;;;23.50;20.75;;;;;16.79;49.81;102136.34;5172752;27;45291;-64
2022/04/16 00:57:34;;;;;;;;;17.75;16.50;;;;;16.72;50.18;102129.00;5162458;27;45349;-63
2022/04/16 01:00:01;;;;;;;;;18.50;18.50;;;;;16.74;50.32;102141.63;5166773;27;45352;-63
2022/04/16 01:02:26;;;;;;;;;17.25;12.50;;;;;16.66;50.77;102137.84;5172338;27;45307;-62
2022/04/16 01:04:52;;;;;;;;;17.00;17.00;;;;;16.66;50.36;102131.53;5175192;27;45153;-62
2022/04/16 01:07:25;;;;;;;;;21.25;14.75;;;;;16.68;50.30;102132.47;5168715;27;45311;-62
2022/04/16 01:09:51;;;;;;;;;20.00;16.25;;;;;16.67;50.62;102133.38;5167704;27;45638;-63
2022/04/16 01:12:17;;;;;;;;;15.75;14.50;;;;;16.60;50.96;102132.31;5162883;27;45426;-63
2022/04/16 01:14:43;;;;;;;;;17.75;17.00;;;;;16.61;50.65;102131.44;5169649;27;45596;-62
2022/04/16 01:17:09;;;;;;;;;25.75;19.25;;;;;16.59;50.73;102127.78;5170211;27;45124;-63
2022/04/16 01:19:40;;;;;;;;;22.50;22.00;;;;;16.55;50.60;102120.50;5154102;27;46337;-63
2022/04/16 01:22:06;;;;;;;;;18.75;15.25;;;;;16.57;50.75;102132.25;5157261;27;45309;-64
2022/04/16 01:24:31;;;;;;;;;18.50;16.75;;;;;16.52;51.22;102120.44;5156996;27;45484;-64
2022/04/16 01:26:58;;;;;;;;;18.75;16.75;;;;;16.51;51.19;102118.59;5161391;27;45627;-64
2022/04/16 01:29:24;;;;;;;;;21.75;19.75;;;;;16.57;51.13;102125.06;5161386;27;45522;-64
2022/04/16 01:31:50;;;;;;;;;17.50;17.00;;;;;16.54;51.40;102132.16;5163184;27;45527;-61
2022/04/16 01:34:17;;;;;;;;;30.00;21.25;;;;;16.55;50.71;102126.81;5157233;27;45364;-62
2022/04/16 01:36:43;;;;;;;;;19.00;14.50;;;;;16.54;50.72;102130.38;5156526;27;45451;-64
2022/04/16 01:39:11;;;;;;;;;21.75;18.75;;;;;16.57;50.77;102127.75;5152841;27;46153;-63
2022/04/16 01:41:37;;;;;;;;;17.75;15.00;;;;;16.60;50.84;102135.03;5166326;27;44977;-63
2022/04/16 01:44:03;;;;;;;;;25.75;20.75;;;;;16.57;51.18;102132.25;5163597;27;45388;-62
2022/04/16 01:46:29;;;;;;;;;17.50;17.00;;;;;16.54;50.75;102137.56;5172235;27;45189;-64
2022/04/16 01:48:55;;;;;;;;;20.00;17.50;;;;;16.50;50.95;102123.09;5169020;27;45587;-62
2022/04/16 01:51:21;;;;;;;;;26.50;20.00;;;;;16.55;50.90;102125.91;5164315;27;45644;-63
2022/04/16 01:53:47;;;;;;;;;21.75;19.00;;;;;16.57;50.74;102127.75;5159468;27;45410;-63
2022/04/16 01:56:12;;;;;;;;;22.50;20.00;;;;;16.52;51.11;102126.72;5157631;27;45584;-63
2022/04/16 01:58:41;;;;;;;;;24.50;22.00;;;;;16.54;51.14;102133.06;5162316;27;46082;-62
2022/04/16 02:01:08;;;;;;;;;20.50;19.75;;;;;16.51;51.27;102138.38;5173851;27;44935;-63
2022/04/16 02:03:33;;;;;;;;;20.75;20.50;;;;;16.34;51.39;102113.69;5173546;27;45154;-63
2022/04/16 02:05:59;;;;;;;;;36.00;29.00;;;;;16.46;50.83;102136.47;5167503;27;45484;-63
2022/04/16 02:08:24;;;;;;;;;16.50;16.00;;;;;16.47;51.50;102138.31;5163456;27;45432;-62
2022/04/16 02:10:49;;;;;;;;;24.75;22.50;;;;;16.45;51.69;102134.63;5160262;27;45575;-63
2022/04/16 02:13:15;;;;;;;;;22.75;19.25;;;;;16.44;51.69;102133.72;5174678;27;45493;-62
2022/04/16 02:15:40;;;;;;;;;28.75;20.25;;;;;16.43;51.54;102131.00;5154019;27;45486;-63
2022/04/16 02:18:05;;;;;;;;;22.00;17.00;;;;;16.31;51.76;102115.41;5171555;27;45841;-63
2022/04/16 02:20:31;;;;;;;;;22.75;21.25;;;;;16.39;51.62;102133.59;5161478;27;45481;-64
2022/04/16 02:22:56;;;;;;;;;22.00;17.25;;;;;16.36;51.59;102125.44;5164261;27;45413;-63
2022/04/16 02:25:24;;;;;;;;;24.00;22.00;;;;;16.35;51.26;102129.03;5169382;27;45279;-64
2022/04/16 02:27:50;;;;;;;;;21.00;19.50;;;;;16.35;51.68;102130.78;5171267;27;46340;-63
2022/04/16 02:30:17;;;;;;;;;20.00;19.00;;;;;16.30;51.96;102136.09;5151105;27;45358;-62
2022/04/16 02:32:48;;;;;;;;;21.00;17.00;;;;;16.29;51.42;102139.66;5162991;27;45505;-63
2022/04/16 02:35:15;;;;;;;;;21.25;20.00;;;;;16.24;51.33;102135.03;5168099;27;45569;-62
2022/04/16 02:37:42;;;;;;;;;27.75;26.75;;;;;16.23;51.95;102138.59;5174312;27;46706;-64
2022/04/16 02:40:10;;;;;;;;;19.00;18.25;;;;;16.18;52.00;102143.84;5170996;27;45437;-62
2022/04/16 02:42:37;;;;;;;;;25.75;19.00;;;;;16.09;51.85;102130.16;5167282;27;45356;-63
2022/04/16 02:47:59;;;;;;;;;23.25;19.00;;;;;16.03;52.25;102144.38;5135676;27;45508;-64
2022/04/16 02:50:27;;;;;;;;;22.00;20.50;;;;;15.94;52.09;102136.06;5165605;27;45354;-64
2022/04/16 02:52:53;;;;;;;;;22.50;20.50;;;;;16.02;52.05;102153.34;5164049;27;45503;-63
2022/04/16 02:55:18;;;;;;;;;26.00;20.00;;;;;15.98;52.12;102148.72;5170599;27;45452;-63
2022/04/16 02:57:44;;;;;;;;;20.75;19.00;;;;;16.00;52.21;102138.91;5164607;27;46251;-63
2022/04/16 03:00:11;;;;;;;;;21.75;16.75;;;;;15.97;52.06;102137.06;5167263;27;45408;-62
2022/04/16 03:02:37;;;;;;;;;25.75;21.25;;;;;15.96;52.26;102137.91;5169115;27;45401;-63
2022/04/16 03:05:06;;;;;;;;;26.50;24.75;;;;;15.79;52.83;102115.00;5167011;27;45308;-64
2022/04/16 03:07:31;;;;;;;;;21.50;21.00;;;;;15.77;52.56;102123.06;5171279;27;45868;-61
2022/04/16 03:09:57;;;;;;;;;26.75;20.75;;;;;15.80;52.61;102132.97;5166175;27;45463;-63
2022/04/16 03:12:22;;;;;;;;;27.00;24.00;;;;;15.67;53.13;102137.06;5164256;27;46477;-64
2022/04/16 03:17:31;;;;;;;;;26.75;24.75;;;;;15.57;53.24;102135.91;5167726;27;45367;-63
2022/04/16 03:19:57;;;;;;;;;29.50;26.50;;;;;15.46;53.56;102137.41;5167877;27;45386;-63
2022/04/16 03:22:22;;;;;;;;;26.50;25.00;;;;;15.51;53.42;102148.28;5166303;27;45430;-63
2022/04/16 03:24:47;;;;;;;;;23.00;22.75;;;;;15.32;53.37;102114.56;5177757;27;45005;-64
2022/04/16 03:27:13;;;;;;;;;25.75;23.25;;;;;15.43;53.47;102143.59;5172176;27;45378;-62
2022/04/16 03:29:38;;;;;;;;;28.25;23.75;;;;;15.37;53.37;102143.41;5172035;27;45089;-64
2022/04/16 03:32:04;;;;;;;;;28.75;25.25;;;;;15.31;53.43;102121.72;5171432;27;45257;-64
2022/04/16 03:34:30;;;;;;;;;28.25;26.75;;;;;15.42;53.85;102140.88;5168984;27;45594;-64
2022/04/16 03:36:56;;;;;;;;;28.50;23.50;;;;;15.25;53.65;102108.97;5174087;27;45423;-64
2022/04/16 03:39:22;;;;;;;;;31.25;24.00;;;;;15.36;53.46;102146.06;5171234;27;45282;-64
2022/04/16 03:41:47;;;;;;;;;27.25;23.50;;;;;15.36;53.68;102147.00;5174796;27;45015;-63
2022/04/16 03:44:13;;;;;;;;;33.25;26.50;;;;;15.32;53.66;102146.88;5173951;27;45480;-63
2022/04/16 03:46:38;;;;;;;;;33.25;26.25;;;;;15.30;53.89;102145.03;5173992;27;45916;-64
2022/04/16 03:49:04;;;;;;;;;30.25;27.00;;;;;15.32;53.98;102149.56;5167187;27;49444;-62
2022/04/16 03:51:29;;;;;;;;;28.75;23.50;;;;;15.29;53.69;102144.97;5176848;27;45011;-64
2022/04/16 03:53:54;;;;;;;;;34.75;28.50;;;;;15.20;53.79;102137.56;5178121;27;45072;-64
2022/04/16 04:01:48;;;;;;;;;25.25;24.50;;;;;15.17;54.09;102129.38;5165006;27;45226;-63
2022/04/16 04:04:13;;;;;;;;;33.00;31.00;;;;;15.18;53.99;102125.84;5156857;27;45308;-63
2022/04/16 04:06:40;;;;;;;;;28.50;26.25;;;;;15.10;54.10;102116.63;5169407;27;44991;-65
2022/04/16 04:09:06;;;;;;;;;29.00;24.75;;;;;15.09;54.05;102136.31;5167698;27;45529;-64
2022/04/16 04:11:32;;;;;;;;;29.50;26.00;;;;;15.06;54.05;102125.44;5168078;27;45356;-63
2022/04/16 04:13:57;;;;;;;;;34.75;24.00;;;;;15.03;54.55;102130.75;5167382;27;45230;-63
2022/04/16 04:16:23;;;;;;;;;29.50;26.25;;;;;14.95;54.37;102137.66;5169872;27;45659;-64
2022/04/16 04:18:48;;;;;;;;;33.50;29.50;;;;;14.80;54.59;102117.50;5161625;27;45282;-63
2022/04/16 04:21:13;;;;;;;;;33.00;27.50;;;;;14.90;54.72;102143.84;5169206;27;45119;-64
2022/04/16 04:23:39;;;;;;;;;34.50;29.25;;;;;14.85;54.57;102136.47;5176638;27;45122;-62
2022/04/16 04:26:04;;;;;;;;;29.50;27.50;;;;;14.86;54.68;102130.22;5175545;27;46625;-64
2022/04/16 04:28:29;;;;;;;;;35.25;28.00;;;;;14.86;54.62;102141.91;5176065;27;45416;-64
2022/04/16 04:30:55;;;;;;;;;33.50;28.75;;;;;14.82;54.64;102145.38;5176283;27;45180;-62
2022/04/16 04:33:20;;;;;;;;;34.75;30.50;;;;;14.78;54.64;102140.75;5176159;27;45093;-62
2022/04/16 04:35:47;;;;;;;;;27.50;25.25;;;;;14.78;54.55;102155.97;5174866;27;45188;-64
2022/04/16 04:38:12;;;;;;;;;31.75;30.00;;;;;14.74;55.06;102165.75;5175655;27;45012;-64
2022/04/16 04:40:39;;;;;;;;;34.75;29.75;;;;;14.67;55.08;102148.50;5174206;27;45199;-64
2022/04/16 04:43:04;;;;;;;;;30.25;27.25;;;;;14.70;54.98;102156.66;5175688;27;45057;-63
2022/04/16 04:45:29;;;;;;;;;26.75;24.00;;;;;14.68;55.12;102146.69;5176837;27;45637;-62
2022/04/16 04:47:55;;;;;;;;;37.25;32.00;;;;;14.66;55.21;102140.38;5176034;27;45090;-63
2022/04/16 04:50:20;;;;;;;;;37.00;30.50;;;;;14.68;55.60;102152.09;5170037;27;45181;-62
2022/04/16 04:52:46;;;;;;;;;29.25;27.00;;;;;14.62;55.45;102152.81;5175954;27;45112;-63
2022/04/16 04:55:13;;;;;;;;;30.25;27.50;;;;;14.50;55.58;102134.47;5175754;27;45148;-63
2022/04/16 04:57:39;;;;;;;;;37.00;29.75;;;;;14.60;55.80;102150.91;5175868;27;45028;-62
2022/04/16 05:00:06;;;;;;;;;32.50;30.50;;;;;14.57;55.99;102147.25;5175673;27;45417;-63
2022/04/16 05:02:46;;;;;;;;;51.00;42.50;;;;;14.61;55.74;102147.38;5176261;27;45054;-63
2022/04/16 05:05:12;;;;;;;;;31.25;27.50;;;;;14.62;55.51;102155.50;5175474;27;45761;-64
2022/04/16 05:07:38;;;;;;;;;33.50;29.25;;;;;14.62;55.70;102159.94;5151516;27;45641;-65
2022/04/16 05:10:04;;;;;;;;;34.50;29.50;;;;;14.51;55.23;102154.19;5173407;27;45133;-63
2022/04/16 05:12:30;;;;;;;;;38.25;26.00;;;;;14.63;55.37;102157.31;5175539;27;45195;-62
2022/04/16 05:14:55;;;;;;;;;27.00;26.25;;;;;14.53;55.91;102145.31;5175794;27;45444;-63
2022/04/16 05:17:20;;;;;;;;;32.00;24.75;;;;;14.64;55.21;102164.53;5170097;27;45093;-62
2022/04/16 05:19:46;;;;;;;;;36.50;28.25;;;;;14.66;55.19;102161.88;5174432;27;45119;-63
2022/04/16 05:22:11;;;;;;;;;37.25;31.00;;;;;14.65;55.82;102165.44;5175072;27;45050;-63
2022/04/16 05:24:36;;;;;;;;;31.00;28.75;;;;;14.49;55.68;102146.09;5175246;27;48489;-63
2022/04/16 05:27:02;;;;;;;;;30.75;27.00;;;;;14.61;55.69;102169.81;5174830;27;45050;-63
2022/04/16 05:29:48;;;;;;;;;34.25;29.75;;;;;14.64;55.35;102177.06;5175286;27;45010;-64
2022/04/16 05:32:12;;;;;;;;;32.00;30.00;;;;;14.62;55.83;102189.53;5174808;27;45262;-62
2022/04/16 05:34:38;;;;;;;;;35.00;30.00;;;;;14.59;55.07;102186.75;5174172;27;45680;-61
2022/04/16 05:37:03;;;;;;;;;36.00;32.25;;;;;14.51;55.40;102186.47;5173072;27;45254;-65
2022/04/16 05:39:29;;;;;;;;;38.75;33.00;;;;;14.32;55.81;102160.72;5173218;27;45111;-62
2022/04/16 05:41:54;;;;;;;;;35.50;30.50;;;;;14.47;55.67;102192.59;5174892;27;45156;-64
2022/04/16 05:44:19;;;;;;;;;33.00;28.25;;;;;14.45;55.74;102189.88;5172530;27;55729;-62
2022/04/16 05:46:44;;;;;;;;;45.75;31.75;;;;;14.49;55.60;102197.19;5174984;27;52802;-64
2022/04/16 05:49:10;;;;;;;;;38.00;32.75;;;;;14.44;56.06;102188.03;5174433;27;45371;-64
2022/04/16 05:51:35;;;;;;;;;40.75;33.50;;;;;14.46;56.18;102193.47;5175510;27;44900;-65
2022/04/16 05:54:02;;;;;;;;;40.00;32.50;;;;;14.45;55.90;102195.25;5172778;27;45815;-65
2022/04/16 05:56:28;;;;;;;;;38.00;31.75;;;;;14.43;55.57;102198.75;5166215;27;45438;-64
2022/04/16 05:58:53;;;;;;;;;34.25;30.50;;;;;14.43;55.96;102199.66;5168068;27;45430;-65
2022/04/16 06:01:19;;;;;;;;;42.75;34.50;;;;;14.44;55.89;102201.50;5173133;27;45541;-63
2022/04/16 06:03:45;;;;;;;;;39.00;31.25;;;;;14.43;55.73;102202.34;5174370;27;45108;-63
2022/04/16 06:06:11;;;;;;;;;46.25;38.25;;;;;14.42;55.54;102205.91;5174252;27;45445;-62
2022/04/16 06:08:36;;;;;;;;;41.50;35.25;;;;;14.44;55.78;102212.25;5155114;27;45415;-64
2022/04/16 06:11:04;;;;;;;;;35.50;32.25;;;;;14.41;55.84;102214.81;5158166;27;45517;-63
2022/04/16 06:13:32;;;;;;;;;44.00;33.25;;;;;14.43;55.79;102213.09;5155801;27;46303;-62
2022/04/16 06:15:58;;;;;;;;;38.50;33.50;;;;;14.43;55.69;102214.88;5159838;27;45463;-62
2022/04/16 06:18:24;;;;;;;;;33.50;30.75;;;;;14.40;55.82;102210.31;5163905;27;45397;-65
2022/04/16 06:20:50;;;;;;;;;40.00;33.00;;;;;14.46;55.79;102223.97;5143911;27;45412;-63
2022/04/16 06:23:22;;;;;;;;;35.25;30.50;;;;;14.47;54.76;102216.78;5169084;27;45747;-63
2022/04/16 06:25:48;;;;;;;;;42.75;34.00;;;;;14.46;55.26;102217.69;5162743;27;45397;-63
2022/04/16 06:28:14;;;;;;;;;37.75;33.25;;;;;14.44;55.41;102227.47;5168401;27;45346;-63
2022/04/16 06:30:40;;;;;;;;;49.25;41.00;;;;;14.30;55.66;102194.72;5174797;27;44921;-63
2022/04/16 06:33:05;;;;;;;;;32.50;29.25;;;;;14.36;55.31;102205.69;5168301;27;45312;-61
2022/04/16 06:35:31;;;;;;;;;44.25;35.75;;;;;14.46;54.93;102205.13;5167964;27;45083;-63
2022/04/16 06:37:56;;;;;;;;;44.00;32.75;;;;;14.23;54.98;102169.41;5170162;27;45044;-65
2022/04/16 06:40:22;;;;;;;;;35.50;32.25;;;;;14.19;55.39;102165.69;5167247;27;45504;-65
2022/04/16 06:42:48;;;;;;;;;41.75;34.25;;;;;14.42;54.86;102218.41;5165583;27;45863;-63
2022/04/16 06:45:13;;;;;;;;;43.50;35.00;;;;;14.37;55.07;102229.94;5166126;27;45814;-63
2022/04/16 06:47:39;;;;;;;;;38.50;32.25;;;;;14.41;55.06;102225.59;5166233;27;45555;-63
2022/04/16 06:50:07;;;;;;;;;42.75;35.75;;;;;14.41;54.76;102222.91;5168649;27;45319;-63
2022/04/16 06:52:32;;;;;;;;;39.75;32.25;;;;;14.37;54.61;102227.25;5161386;27;45505;-64
2022/04/16 06:54:58;;;;;;;;;51.25;35.75;;;;;14.32;55.53;102231.56;5140903;27;45556;-63
2022/04/16 06:57:24;;;;;;;;;44.50;36.50;;;;;14.35;55.46;102231.69;5165271;27;45585;-64
2022/04/16 06:59:50;;;;;;;;;41.00;33.50;;;;;14.37;54.69;102227.25;5158092;27;45554;-63
2022/04/16 07:02:15;;;;;;;;;35.50;30.50;;;;;14.38;54.89;102220.09;5158676;27;45384;-65
2022/04/16 07:04:41;;;;;;;;;46.75;33.50;;;;;14.45;55.49;102227.53;5163065;27;45198;-61
2022/04/16 07:07:08;;;;;;;;;41.00;35.25;;;;;14.50;54.96;102224.97;5176499;27;45427;-64
2022/04/16 07:09:38;;;;;;;;;38.50;31.25;;;;;14.55;54.55;102218.91;5159090;27;45435;-64
2022/04/16 07:12:07;;;;;;;;;48.00;38.50;;;;;14.57;55.13;102216.28;5161533;27;46595;-65
2022/04/16 07:14:33;;;;;;;;;45.75;36.00;;;;;14.56;54.40;102215.34;5166224;27;45598;-66
2022/04/16 07:17:01;;;;;;;;;43.50;34.50;;;;;14.62;54.35;102209.31;5156986;27;45519;-65
2022/04/16 07:19:27;;;;;;;;;41.75;34.25;;;;;14.64;54.02;102196.81;5160422;27;45396;-65
2022/04/16 07:21:54;;;;;;;;;38.75;31.50;;;;;14.63;54.18;102188.69;5166290;27;46224;-66
2022/04/16 07:24:19;;;;;;;;;42.75;35.50;;;;;14.69;53.98;102179.03;5164857;27;45581;-65
2022/04/16 07:26:47;;;;;;;;;48.50;37.25;;;;;14.86;53.97;102205.56;5161284;27;46195;-67
2022/04/16 07:29:13;;;;;;;;;47.00;35.25;;;;;14.84;53.60;102191.16;5158513;27;45617;-65
2022/04/16 07:31:38;;;;;;;;;45.25;33.50;;;;;15.03;53.57;102216.88;5157498;27;46754;-66
2022/04/16 07:34:04;;;;;;;;;68.25;52.50;;;;;15.04;53.16;102216.91;5163182;27;45371;-65
2022/04/16 07:36:29;;;;;;;;;41.50;32.00;;;;;15.17;53.17;102212.84;5163964;27;45516;-65
2022/04/16 07:38:54;;;;;;;;;43.00;34.75;;;;;15.26;52.74;102217.59;5161961;27;45216;-65
2022/04/16 07:41:20;;;;;;;;;40.00;33.25;;;;;15.33;52.71;102213.28;5162200;27;45925;-64
2022/04/16 07:43:45;;;;;;;;;37.75;30.25;;;;;15.46;52.43;102231.69;5158780;27;45454;-67
2022/04/16 07:46:10;;;;;;;;;38.25;31.00;;;;;15.55;52.25;102231.94;5161642;27;45407;-66
2022/04/16 07:48:37;;;;;;;;;47.25;36.00;;;;;15.62;52.10;102233.97;5140194;27;45683;-65
2022/04/16 07:51:03;;;;;;;;;44.75;38.25;;;;;15.55;51.63;102210.38;5160907;27;46297;-65
2022/04/16 07:53:29;;;;;;;;;46.75;36.50;;;;;15.76;51.64;102230.78;5155338;27;45470;-66
2022/04/16 07:55:54;;;;;;;;;47.25;35.25;;;;;15.74;51.91;102228.00;5158948;27;45423;-67
2022/04/16 07:58:20;;;;;;;;;47.50;35.50;;;;;15.81;50.95;102242.63;5162899;27;45486;-65
2022/04/16 08:00:45;;;;;;;;;46.75;34.00;;;;;15.83;50.76;102239.06;5153496;27;45748;-65
2022/04/16 08:03:10;;;;;;;;;40.00;34.50;;;;;15.75;50.97;102237.00;5160462;27;45538;-66
2022/04/16 08:05:36;;;;;;;;;36.25;32.75;;;;;15.82;50.88;102228.25;5160329;27;45254;-66
2022/04/16 08:08:02;;;;;;;;;41.50;32.75;;;;;15.67;50.77;102201.75;5162123;27;45223;-66
2022/04/16 08:10:27;;;;;;;;;42.75;33.75;;;;;15.81;50.99;102226.44;5162812;27;45803;-65
2022/04/16 08:12:53;;;;;;;;;41.25;34.00;;;;;15.99;51.22;102237.75;5164651;27;45277;-65
2022/04/16 08:15:18;;;;;;;;;31.50;26.00;;;;;16.04;50.09;102235.19;5161738;27;45299;-66
2022/04/16 08:17:43;;;;;;;;;41.50;33.50;;;;;15.97;50.71;102223.31;5166375;27;45363;-66
2022/04/16 08:20:09;;;;;;;;;41.25;34.75;;;;;16.10;50.56;102231.72;5167764;27;45605;-66
2022/04/16 08:22:35;;;;;;;;;36.00;33.25;;;;;16.14;50.25;102223.75;5163207;27;45537;-65
2022/04/16 08:27:43;;;;;;;;;37.75;32.75;;;;;16.54;50.03;102238.28;5160595;27;45463;-66
2022/04/16 08:30:11;;;;;;;;;43.00;33.75;;;;;16.53;49.38;102219.38;5159420;27;47466;-67
2022/04/16 08:32:38;;;;;;;;;43.75;35.25;;;;;16.80;49.36;102245.25;5142446;27;45441;-66
2022/04/16 08:35:04;;;;;;;;;44.50;37.50;;;;;16.90;48.61;102253.63;5158889;27;45471;-65
2022/04/16 08:37:31;;;;;;;;;41.25;35.25;;;;;16.98;48.92;102242.09;5136931;27;45487;-67
2022/04/16 08:39:56;;;;;;;;;39.00;32.75;;;;;17.05;48.04;102246.78;5160312;27;46057;-66
2022/04/16 08:42:22;;;;;;;;;55.00;38.00;;;;;17.14;48.55;102249.69;5157171;27;45467;-66
2022/04/16 08:44:49;;;;;;;;;36.50;30.00;;;;;17.25;47.50;102249.94;5157346;27;45397;-66
2022/04/16 08:47:15;;;;;;;;;28.75;26.50;;;;;17.35;46.78;102242.97;5163078;27;45361;-65
2022/04/16 08:49:42;;;;;;;;;26.50;26.50;;;;;17.49;46.58;102250.50;5157917;27;45418;-66
2022/04/16 08:52:08;;;;;;;;;37.75;33.25;;;;;17.49;46.43;102226.16;5138269;27;45438;-66
2022/04/16 08:54:36;;;;;;;;;33.25;27.00;;;;;17.63;46.42;102245.38;5170185;27;45454;-66
2022/04/16 08:57:01;;;;;;;;;37.50;31.75;;;;;17.62;46.16;102246.28;5164286;27;45504;-66
2022/04/16 08:59:26;;;;;;;;;44.50;34.50;;;;;17.55;46.82;102251.50;5165151;27;46274;-66
2022/04/16 09:01:52;;;;;;;;;39.00;33.00;;;;;17.40;46.59;102227.75;5166216;27;45400;-65
2022/04/16 09:04:22;;;;;;;;;36.25;33.50;;;;;17.53;46.50;102246.06;5168843;27;45374;-66
2022/04/16 09:06:56;;;;;;;;;30.75;27.50;;;;;17.68;46.95;102238.25;5166785;27;45551;-66
2022/04/16 09:09:22;;;;;;;;;30.25;26.75;;;;;17.90;47.19;102246.88;5166694;27;45619;-67
2022/04/16 09:11:50;;;;;;;;;41.75;33.50;;;;;17.96;46.22;102243.38;5163375;27;45397;-66
2022/04/16 09:14:16;;;;;;;;;32.75;29.00;;;;;17.96;45.71;102225.34;5165854;27;45349;-65
2022/04/16 09:16:42;;;;;;;;;25.00;22.25;;;;;18.20;45.35;102257.38;5168683;27;45567;-66
2022/04/16 09:19:17;;;;;;;;;30.00;27.50;;;;;18.31;45.50;102252.16;5160009;27;45476;-65
2022/04/16 09:21:43;;;;;;;;;30.25;26.50;;;;;18.41;44.96;102240.63;5158310;27;45693;-66
2022/04/16 09:24:09;;;;;;;;;35.50;30.50;;;;;18.37;44.78;102227.91;5170639;27;45598;-65
2022/04/16 09:26:37;;;;;;;;;26.25;24.75;;;;;18.51;45.07;102229.94;5162736;27;45550;-67
2022/04/16 09:29:10;;;;;;;;;35.50;29.25;;;;;18.85;44.29;102238.69;5156299;27;46073;-65
2022/04/16 09:31:43;;;;;;;;;32.00;22.00;;;;;19.21;43.69;102242.84;5159198;27;45423;-66
2022/04/16 09:34:16;;;;;;;;;29.00;22.25;;;;;19.34;42.32;102228.59;5156353;27;45339;-67
2022/04/16 09:36:44;;;;;;;;;30.00;28.25;;;;;19.28;41.57;102217.66;5157114;27;45543;-67
2022/04/16 09:39:13;;;;;;;;;28.25;22.75;;;;;19.31;42.00;102240.28;5147489;27;46129;-66
2022/04/16 09:41:41;;;;;;;;;27.50;24.25;;;;;19.29;42.14;102236.66;5163127;27;45457;-65
2022/04/16 09:44:17;;;;;;;;;30.25;26.50;;;;;19.30;42.27;102230.34;5162959;27;45274;-65
2022/04/16 09:46:45;;;;;;;;;22.25;21.75;;;;;19.31;42.24;102229.44;5164219;27;45525;-64
2022/04/16 09:49:12;;;;;;;;;43.75;29.25;;;;;19.24;42.70;102208.56;5168635;27;45777;-65
2022/04/16 09:51:41;;;;;;;;;30.75;25.75;;;;;19.49;42.07;102225.16;5160636;27;45376;-66
2022/04/16 09:54:06;;;;;;;;;28.75;24.00;;;;;19.49;41.98;102220.66;5161670;27;45386;-65
2022/04/16 09:56:37;;;;;;;;;26.75;22.75;;;;;19.53;41.53;102216.16;5161706;27;45257;-66
2022/04/16 09:59:05;;;;;;;;;39.00;30.25;;;;;19.49;41.88;102222.47;5155418;27;45595;-65
2022/04/16 10:01:32;;;;;;;;;30.00;22.75;;;;;19.63;41.36;102219.91;5155601;27;45477;-66
2022/04/16 10:03:58;;;;;;;;;25.00;21.00;;;;;19.66;40.82;102219.94;5155874;27;45424;-66
2022/04/16 10:06:24;;;;;;;;;20.00;19.25;;;;;19.62;41.00;102215.41;5159417;27;45397;-65
2022/04/16 10:08:50;;;;;;;;;26.75;24.75;;;;;19.63;41.16;102219.91;5159099;27;45536;-66
2022/04/16 10:11:21;;;;;;;;;28.50;25.75;;;;;19.68;41.73;102234.44;5147100;27;45665;-66
2022/04/16 10:13:58;;;;;;;;;29.50;26.00;;;;;19.70;41.35;102219.13;5159334;27;45413;-66
2022/04/16 10:16:38;;;;;;;;;32.50;31.25;;;;;19.43;41.30;102173.59;5159445;27;45367;-66
2022/04/16 10:19:14;;;;;;;;;23.25;22.75;;;;;19.85;41.13;102231.97;5158960;27;45590;-66
2022/04/16 10:21:41;;;;;;;;;23.25;17.00;;;;;19.91;40.46;102234.75;5167319;27;45351;-67
2022/04/16 10:24:06;;;;;;;;;21.25;18.50;;;;;19.88;39.93;102227.50;5167263;27;45321;-66
2022/04/16 10:26:38;;;;;;;;;30.25;22.50;;;;;20.01;40.08;102233.97;5172033;27;45515;-64
2022/04/16 10:29:04;;;;;;;;;20.00;20.00;;;;;19.88;39.59;102213.00;5147824;27;46776;-65
2022/04/16 10:31:32;;;;;;;;;23.25;21.75;;;;;20.04;39.09;102233.97;5159197;27;45450;-65
2022/04/16 10:34:00;;;;;;;;;20.50;19.00;;;;;20.04;38.92;102228.56;5159170;27;45470;-64
2022/04/16 10:36:27;;;;;;;;;22.50;19.50;;;;;20.02;38.42;102227.63;5158991;27;45605;-64
2022/04/16 10:38:53;;;;;;;;;22.50;19.25;;;;;19.65;38.49;102170.25;5163560;27;45417;-66
2022/04/16 10:41:20;;;;;;;;;17.75;13.50;;;;;19.88;38.32;102196.72;5160116;27;45317;-66
2022/04/16 10:44:02;;;;;;;;;19.75;15.50;;;;;20.04;38.15;102216.81;5162729;27;45437;-67
2022/04/16 10:46:48;;;;;;;;;18.50;16.50;;;;;20.06;38.60;102224.09;5163211;27;45366;-64
2022/04/16 10:49:14;;;;;;;;;14.25;13.25;;;;;20.10;37.68;102206.03;5161251;27;45501;-64
2022/04/16 10:51:40;;;;;;;;;18.00;15.25;;;;;20.15;38.19;102206.97;5160655;27;45494;-64
2022/04/16 10:54:27;;;;;;;;;19.25;15.25;;;;;20.15;37.45;102212.41;5158692;27;45293;-64
2022/04/16 10:56:54;;;;;;;;;22.75;21.00;;;;;20.00;37.82;102206.84;5159065;27;45468;-65
2022/04/16 10:59:38;;;;;;;;;20.50;19.50;;;;;20.00;38.01;102199.59;5175540;27;45242;-65
2022/04/16 11:02:19;;;;;;;;;19.25;18.50;;;;;20.07;38.54;102198.75;5168531;27;45199;-66
2022/04/16 11:05:01;;;;;;;;;22.00;17.00;;;;;20.21;38.35;102220.63;5168532;27;45259;-66
2022/04/16 11:07:35;;;;;;;;;22.25;19.50;;;;;20.22;38.54;102211.56;5173335;27;45389;-65
2022/04/16 11:10:01;;;;;;;;;20.00;19.00;;;;;20.26;38.73;102207.09;5173112;27;45612;-66
2022/04/16 11:12:27;;;;;;;;;21.00;20.00;;;;;20.30;38.32;102208.94;5167440;27;45315;-65
2022/04/16 11:14:53;;;;;;;;;17.00;17.00;;;;;20.19;36.98;102178.06;5166688;27;45463;-66
2022/04/16 11:17:22;;;;;;;;;19.25;14.50;;;;;20.22;36.79;102186.25;5163343;27;45741;-65
2022/04/16 11:20:04;;;;;;;;;14.00;11.75;;;;;20.04;35.24;102159.84;5157125;27;46150;-64
2022/04/16 11:22:30;;;;;;;;;13.67;13.33;;;;;20.23;35.49;102196.22;5152220;27;45450;-67